Kirkland, AZ (86332)

1:31 AM MST on October 24, 2014 (GMT -0700)
Mountain Club | Change Station
CLOSE
Current Station
Personal Weather Station
Location: Prescott, AZ
Elevation: 5730 ft
Nearby Weather Stations

Elev 5730 ft 34.52 °N, 112.49 °W | Updated 2 minutes ago

Clear
Clear
55.1 °F
Feels Like 55.1 °F
N
5.0
Wind Variable Wind from SW
Gusts 6.0 mph

Today
High -- | Low -- °F
--% Chance of Precip.
Yesterday
High -- | Low -- °F
Precip. -- in
6:43 AM 5:45 PM
New Moon, 0% visible
Pressure 30.06 in
Visibility 10.0 miles
Clouds Clear
Dew Point 35 °F
Humidity 47%
Rainfall 0.00 in
Snow Depth Not available.
UV 0 out of 12
Pollen 5.10 out of 12
Air Quality Not available.
Flu Activity No Activity
METAR KPRC 240753Z AUTO 20005KT 10SM CLR 11/04 A3024 RMK AO2 SLP177 T01060039

More Conditions Fewer Conditions

Pressure 30.06 in
Visibility 10.0 miles
Clouds Clear
Dew Point 35 °F
Humidity 47%
Rainfall 0.00 in
Snow Depth Not available.
UV 0 out of 12
Pollen 5.10 out of 12
Air Quality Not available.
Flu Activity No Activity
METAR KPRC 240753Z AUTO 20005KT 10SM CLR 11/04 A3024 RMK AO2 SLP177 T01060039

More Conditions Fewer Conditions

10-Day Weather Forecast

Almanac

Astronomy

Oct. 24, 2014 Rise Set
Actual Time 6:43 AM MST 5:45 PM MST
Civil Twilight 6:17 AM MST 6:10 PM MST
Nautical Twilight 5:48 AM MST 6:40 PM MST
Astronomical Twilight 5:19 AM MST 7:09 PM MST
Moon 7:24 AM MST 6:29 PM MST
Length of Visible Light 11h 52m
Length of Day
11h 01m
Tomorrow will be 1m 59s shorter.
New Moon, 0% of the Moon is Illuminated
Today
New Moon
Oct 30
First Quarter
Nov 6
Full
Nov 14
Last Quarter
Nov 22
New

Today's Extremes

State Highs State Lows

Community

WunderPhotos

Upload Photos

1,764,511 photos uploaded!

WunderBlogs® & News

Nearby

Snow Depth

Station Depth Elevation
White Horse Lake 1 in 7180 ft
Baker Butte 0 in 7300 ft
Mormon Mountain 0 in 7500 ft
Happy Jack 0 in 7630 ft
Snowslide Canyon 0 in 9730 ft

Earthquake Activity

City Distance Mag. Time & Date
No recent earthquake activity has been reported nearby.
Minimum magnitude displayed is 2.5.

Coastal Water Temperatures

Place Temperature
No Stations Reporting

Nearby Weather Stations